This is the latest recevied weather packets stored in our database for station/object AI5KP-13. If no packets are shown the sender has not sent any weather packets the latest 10 day(s).
| Time | Temp. | Humidity | Pressure | Rain* | Wind** | Luminosity | Snow |
|---|---|---|---|---|---|---|---|
| 1777554999 | 12.78° C | 73% | 1017.4 hPa | 0 mm | - | 176 W/m² | - |
| 1777554696 | 12.22° C | 74% | 1017.4 hPa | 0 mm | - | 186 W/m² | - |
| 1777554393 | 12.22° C | 74% | 1017.8 hPa | 0 mm | - | 150 W/m² | - |
| 1777554090 | 12.22° C | 75% | 1017.7 hPa | 0 mm | - | 115 W/m² | - |
| 1777553786 | 10.56° C | 88% | 1017.8 hPa | 0 mm | - | 105 W/m² | - |
| 1777553483 | 9.44° C | 89% | 1017.8 hPa | 0 mm | - | 89 W/m² | - |
| 1777553179 | 10° C | 89% | 1017.9 hPa | 0 mm | - | 84 W/m² | - |
| 1777552875 | 10.56° C | 86% | 1017.8 hPa | 0 mm | - | 70 W/m² | - |
| 1777552570 | 9.44° C | 89% | 1017.6 hPa | 0 mm | - | 72 W/m² | - |
| 1777552266 | 8.89° C | 92% | 1017.6 hPa | 0 mm | - | 66 W/m² | - |
| 1777551963 | 8.33° C | 93% | 1017.8 hPa | 0 mm | - | 57 W/m² | - |
| 1777551661 | 10° C | 86% | 1017.7 hPa | 0 mm | - | 47 W/m² | - |
| 1777551358 | 10.56° C | 82% | 1017.7 hPa | 0 mm | - | 41 W/m² | - |
| 1777551054 | 9.44° C | 84% | 1017.3 hPa | 0 mm | - | 37 W/m² | - |
| 1777550751 | 7.78° C | 92% | 1017.1 hPa | 0 mm | - | 32 W/m² | - |
| 1777550447 | 6.67° C | 96% | 1017.4 hPa | 0 mm | - | 26 W/m² | - |
| 1777550144 | 6.11° C | 96% | 1017.3 hPa | 0 mm | - | 20 W/m² | - |
| 1777549840 | 6.11° C | 96% | 1017.4 hPa | 0 mm | - | 15 W/m² | - |
| 1777549536 | 6.67° C | 95% | 1017.2 hPa | 0 mm | - | 11 W/m² | - |
| 1777549233 | 6.67° C | 95% | 1017.3 hPa | 0 mm | - | 7 W/m² | - |
| 1777548929 | 7.22° C | 93% | 1017.1 hPa | 0 mm | - | 5 W/m² | - |
| 1777548627 | 8.89° C | 87% | 1017.2 hPa | 0 mm | - | 3 W/m² | - |
| 1777548323 | 8.33° C | 88% | 1017.2 hPa | 0 mm | - | 2 W/m² | - |
| 1777548020 | 7.22° C | 92% | 1017.3 hPa | 0 mm | - | 1 W/m² | - |
| 1777547715 | 6.67° C | 94% | 1017.1 hPa | 0 mm | - | 0 W/m² | - |
* Rain latest hour (hover to see other rain measurements)
** Current wind speed in m/s (hover to see current wind gust speed)